カイロ の空港の天気 - METARとTAF

カイロ国際空港 ( HECA / CAI ) - エジプト [カイロ
飛行場実況気象(Metar)
観測時間10/21 18:30 EET (10/21 16:30 UTC)
風向・風速北北東 9m/s
視程10km以上
天気現象
なし
気温25℃
湿度61%
気圧1018hPa
METARHECA 211630Z 03017KT CAVOK 25/17 Q1018 NOSIG
過去の天気等 Google飛行場航空写真 Wunderground天気予報

過去48時間のMETAR

飛行場予報(TAF)
発表時間: 10/21 13:25 EET (10/21 11:25 UTC)
予報対象時間: 21日14時 EET ~ 22日20時 EET
風向・風速北 8m/s 瞬間風速 13m/s
視程6000m
全天の4割程度の雲 雲底高度 760m
21日14時 EET ~ 21日18時 EET に一時的に
視程3000m
天気現象砂塵
21日14時 EET から 確率 40% で
視程1000m
22日2時 EET から 確率 30% で
風向・風速北東 4m/s
視程3000m
天気現象もや
TAF AMD HECA 211125Z 2112/2218 01015G25KT 6000 SCT025
TEMPO 2112/2116 3000 SA
PROB40 2112/2115 1000
PROB30 2200/2206 04007KT 3000 BR